^^
Station Historical Data
 
Daily Summary for September 24, 2017 Units:  English    Metric   Both
« Previous Day
Next Day »
Daily Weekly Monthly Yearly Custom
  Current: High: Low: Average:
Temperature: 73.6 °F 76.3 °F 73.6 °F 74.8 °F
Dew Point: 66.7 °F 68.1 °F 66.7 °F 67.5 °F
Humidity: 79% 81% 75% 78%
Wind Speed: 3.5mph 8.1mph 1.2mph 3.1mph
Wind Gust: 3.5mph 8.1mph - -
WindSE - - SE
Pressure: 29.84 in 29.85 in 29.84 in -
Precipitation: 0.00 in      
Historical Graphs
 
 
Tabular Data for September 24, 2017
Time Temperature Dew Point Pressure Wind Wind Speed Wind Gust Humidity Rainfall Rate (Hourly)
00:00 76.3 °F 67.8 °F 29.85 in East 3.5 mph 3.5 mph 75% 0.00 in
00:05 76.2 °F 68.1 °F 29.85 in SE 2.3 mph 2.3 mph 76% 0.00 in
00:10 76.1 °F 68.0 °F 29.85 in SE 3.5 mph 3.5 mph 76% 0.00 in
00:15 76.1 °F 68.0 °F 29.85 in ESE 3.5 mph 3.5 mph 76% 0.00 in
00:20 76.0 °F 67.9 °F 29.84 in ESE 2.3 mph 2.3 mph 76% 0.00 in
00:25 75.9 °F 67.8 °F 29.84 in ESE 2.3 mph 2.3 mph 76% 0.00 in
00:30 75.8 °F 67.7 °F 29.84 in ESE 1.2 mph 1.2 mph 76% 0.00 in
00:35 75.6 °F 67.9 °F 29.84 in ESE 2.3 mph 2.3 mph 77% 0.00 in
00:40 75.5 °F 67.8 °F 29.84 in ESE 2.3 mph 2.3 mph 77% 0.00 in
00:45 75.5 °F 67.8 °F 29.84 in SE 2.3 mph 2.3 mph 77% 0.00 in
00:50 75.4 °F 67.7 °F 29.84 in ESE 2.3 mph 2.3 mph 77% 0.00 in
00:55 75.3 °F 67.6 °F 29.84 in ESE 2.3 mph 2.3 mph 77% 0.00 in
01:00 75.3 °F 67.6 °F 29.84 in SE 3.5 mph 3.5 mph 77% 0.00 in
01:05 75.2 °F 67.5 °F 29.84 in SE 2.3 mph 2.3 mph 77% 0.00 in
01:10 75.2 °F 67.5 °F 29.84 in SE 2.3 mph 2.3 mph 77% 0.00 in
01:15 75.1 °F 67.4 °F 29.84 in SE 3.5 mph 3.5 mph 77% 0.00 in
01:20 75.0 °F 67.7 °F 29.84 in SSE 1.2 mph 1.2 mph 78% 0.00 in
01:25 75.0 °F 67.7 °F 29.84 in SE 2.3 mph 2.3 mph 78% 0.00 in
01:30 74.9 °F 67.6 °F 29.84 in SE 3.5 mph 3.5 mph 78% 0.00 in
01:35 74.9 °F 67.6 °F 29.84 in South 1.2 mph 1.2 mph 78% 0.00 in
01:40 74.9 °F 67.6 °F 29.84 in SE 1.2 mph 1.2 mph 78% 0.00 in
01:45 74.8 °F 67.5 °F 29.84 in SE 2.3 mph 2.3 mph 78% 0.00 in
01:50 74.7 °F 67.4 °F 29.84 in SSE 4.6 mph 4.6 mph 78% 0.00 in
01:55 74.7 °F 67.4 °F 29.84 in SE 2.3 mph 2.3 mph 78% 0.00 in
02:00 74.6 °F 67.7 °F 29.84 in SE 2.3 mph 2.3 mph 79% 0.00 in
02:05 74.5 °F 67.6 °F 29.84 in SE 1.2 mph 1.2 mph 79% 0.00 in
02:10 74.4 °F 67.5 °F 29.84 in SE 3.5 mph 3.5 mph 79% 0.00 in
02:15 74.2 °F 67.3 °F 29.84 in SE 2.3 mph 2.3 mph 79% 0.00 in
02:20 74.0 °F 67.4 °F 29.84 in South 2.3 mph 2.3 mph 80% 0.00 in
02:25 73.9 °F 67.3 °F 29.84 in ESE 3.0 mph 3.0 mph 80% 0.00 in
02:30 73.8 °F 67.6 °F 29.84 in ESE 5.8 mph 5.8 mph 81% 0.00 in
02:35 73.8 °F 67.6 °F 29.84 in SE 2.3 mph 2.3 mph 81% 0.00 in
02:40 73.8 °F 67.6 °F 29.84 in SE 3.5 mph 3.5 mph 81% 0.00 in
02:45 74.0 °F 67.4 °F 29.84 in SE 2.3 mph 2.3 mph 80% 0.00 in
02:50 74.0 °F 67.4 °F 29.84 in South 5.8 mph 5.8 mph 80% 0.00 in
03:01 74.3 °F 67.4 °F 29.84 in SSE 4.6 mph 4.6 mph 79% 0.00 in
03:05 74.3 °F 67.4 °F 29.84 in ESE 2.3 mph 2.3 mph 79% 0.00 in
03:11 74.2 °F 67.3 °F 29.84 in SSW 3.5 mph 3.5 mph 79% 0.00 in
03:16 74.2 °F 67.3 °F 29.84 in SE 3.5 mph 3.5 mph 79% 0.00 in
03:21 74.1 °F 67.2 °F 29.84 in SE 8.1 mph 8.1 mph 79% 0.00 in
03:26 74.0 °F 67.1 °F 29.84 in SSE 5.8 mph 5.8 mph 79% 0.00 in
03:31 73.8 °F 66.9 °F 29.84 in SE 5.8 mph 5.8 mph 79% 0.00 in
03:36 73.8 °F 66.9 °F 29.84 in SE 5.8 mph 5.8 mph 79% 0.00 in
03:41 73.6 °F 66.7 °F 29.84 in SE 3.5 mph 3.5 mph 79% 0.00 in
Live Lenexa Weather
Compliments of Weather Underground - 1 mb